createdAt,value
2023-03-21T03:58:50.723Z,467.00
2023-03-21T03:59:46.884Z,446.00
2023-03-21T04:00:47.562Z,446.00
2023-03-21T04:01:46.912Z,446.00
2023-03-21T04:02:47.851Z,447.00
2023-03-21T04:03:50.673Z,446.00
2023-03-21T04:04:48.641Z,448.00
2023-03-21T04:05:48.714Z,447.00
2023-03-21T04:06:47.722Z,449.00
2023-03-21T04:07:47.783Z,447.00
2023-03-21T04:08:48.904Z,444.00
2023-03-21T04:09:47.993Z,444.00
2023-03-21T04:10:48.114Z,446.00
2023-03-21T04:11:49.745Z,445.00
2023-03-21T04:12:49.104Z,448.00
2023-03-21T04:13:49.465Z,448.00
2023-03-21T04:14:48.547Z,450.00
2023-03-21T04:15:48.580Z,451.00
2023-03-21T04:16:49.153Z,451.00
2023-03-21T04:17:49.193Z,450.00
2023-03-21T04:18:49.191Z,450.00
2023-03-21T04:19:49.284Z,451.00
2023-03-21T04:20:50.243Z,450.00
2023-03-21T04:21:49.514Z,453.00
2023-03-21T04:22:49.546Z,457.00
2023-03-21T04:23:50.929Z,459.00
2023-03-21T04:24:50.936Z,458.00
2023-03-21T04:25:56.411Z,458.00
2023-03-21T04:26:52.519Z,455.00
2023-03-21T04:27:51.050Z,453.00
2023-03-21T04:28:51.151Z,452.00
2023-03-21T04:29:51.289Z,451.00
2023-03-21T04:31:01.288Z,451.00
2023-03-21T04:31:52.692Z,450.00
2023-03-21T04:32:51.036Z,447.00
2023-03-21T04:33:51.000Z,446.00
2023-03-21T04:34:51.034Z,445.00
2023-03-21T04:35:52.124Z,445.00
2023-03-21T04:36:51.824Z,445.00
2023-03-21T04:37:51.446Z,445.00
2023-03-21T04:38:51.887Z,444.00
2023-03-21T04:39:51.984Z,444.00
2023-03-21T04:40:52.755Z,444.00
2023-03-21T04:41:52.017Z,442.00
2023-03-21T04:42:53.029Z,442.00
2023-03-21T04:43:52.711Z,443.00
2023-03-21T04:44:53.506Z,442.00
2023-03-21T04:46:04.428Z,443.00
2023-03-21T04:46:53.562Z,443.00
2023-03-21T04:47:53.220Z,443.00
2023-03-21T04:48:53.123Z,445.00
2023-03-21T04:49:53.254Z,447.00
2023-03-21T04:50:53.286Z,450.00
2023-03-21T04:51:54.223Z,453.00
2023-03-21T04:52:53.810Z,454.00
2023-03-21T04:53:53.794Z,452.00
2023-03-21T04:54:53.801Z,452.00
2023-03-21T04:55:55.569Z,451.00
2023-03-21T04:56:54.450Z,451.00
2023-03-21T04:57:55.514Z,451.00
2023-03-21T04:58:55.538Z,452.00
2023-03-21T04:59:55.332Z,452.00
2023-03-21T05:00:55.771Z,449.00
2023-03-21T05:01:55.574Z,448.00
2023-03-21T05:02:55.786Z,447.00
2023-03-21T05:03:55.564Z,448.00
2023-03-21T05:04:55.994Z,449.00
2023-03-21T05:05:55.226Z,447.00
2023-03-21T05:06:55.847Z,445.00
2023-03-21T05:07:56.886Z,444.00
2023-03-21T05:08:55.920Z,446.00
2023-03-21T05:09:56.996Z,445.00
2023-03-21T05:10:56.745Z,445.00
2023-03-21T05:11:56.393Z,446.00
2023-03-21T05:12:56.365Z,445.00
2023-03-21T05:13:56.497Z,444.00
2023-03-21T05:14:56.555Z,442.00
2023-03-21T05:15:58.218Z,441.00
2023-03-21T05:16:57.707Z,441.00
2023-03-21T05:17:57.665Z,441.00
2023-03-21T05:18:57.348Z,443.00
2023-03-21T05:19:57.124Z,443.00
2023-03-21T05:20:57.545Z,442.00
2023-03-21T05:21:57.431Z,445.00
2023-03-21T05:22:57.461Z,447.00
2023-03-21T05:23:58.149Z,448.00
2023-03-21T05:24:57.770Z,450.00
2023-03-21T05:25:58.706Z,452.00
2023-03-21T05:26:59.628Z,449.00
2023-03-21T05:27:58.999Z,448.00
2023-03-21T05:28:58.656Z,447.00
2023-03-21T05:29:58.656Z,447.00
2023-03-21T05:31:02.478Z,446.00
2023-03-21T05:31:59.727Z,446.00
2023-03-21T05:32:58.775Z,445.00
2023-03-21T05:33:59.804Z,443.00
2023-03-21T05:34:59.950Z,442.00
2023-03-21T05:36:00.024Z,441.00
2023-03-21T05:37:00.190Z,442.00
2023-03-21T05:37:59.439Z,444.00
2023-03-21T05:39:00.446Z,442.00
2023-03-21T05:40:00.035Z,443.00
2023-03-21T05:41:00.877Z,447.00
2023-03-21T05:42:00.883Z,448.00
2023-03-21T05:43:00.394Z,447.00
2023-03-21T05:44:00.163Z,443.00
2023-03-21T05:45:01.217Z,442.00
2023-03-21T05:46:00.505Z,442.00
2023-03-21T05:47:00.799Z,442.00
2023-03-21T05:48:00.884Z,439.00
2023-03-21T05:49:01.308Z,441.00
2023-03-21T05:50:01.466Z,440.00
2023-03-21T05:51:01.345Z,441.00
2023-03-21T05:52:01.531Z,441.00
2023-03-21T05:53:01.561Z,441.00
2023-03-21T05:54:01.674Z,440.00
2023-03-21T05:55:02.679Z,437.00
2023-03-21T05:56:02.788Z,435.00
2023-03-21T05:57:02.315Z,438.00
2023-03-21T05:58:02.610Z,439.00
2023-03-21T05:59:03.809Z,440.00
2023-03-21T06:00:03.597Z,441.00
2023-03-21T06:01:02.718Z,439.00
2023-03-21T06:02:03.560Z,439.00
2023-03-21T06:03:02.999Z,439.00
2023-03-21T06:06:19.250Z,453.00
2023-03-21T06:07:19.311Z,450.00
2023-03-21T06:08:19.866Z,451.00
2023-03-21T06:09:19.775Z,454.00
2023-03-21T06:10:19.971Z,455.00
2023-03-21T06:11:19.897Z,457.00
2023-03-21T06:12:20.414Z,458.00
2023-03-21T06:13:20.406Z,455.00
2023-03-21T06:14:20.362Z,455.00
2023-03-21T06:15:20.344Z,453.00
2023-03-21T06:16:20.813Z,453.00
2023-03-21T06:17:20.776Z,452.00
2023-03-21T06:18:20.790Z,453.00
2023-03-21T06:19:21.271Z,452.00
2023-03-21T06:20:21.167Z,450.00
2023-03-21T06:21:22.345Z,448.00
2023-03-21T06:22:22.325Z,447.00
2023-03-21T06:23:21.828Z,448.00
2023-03-21T06:24:21.957Z,449.00
2023-03-21T06:25:21.840Z,451.00
2023-03-21T06:26:21.864Z,453.00
2023-03-21T06:27:23.084Z,449.00
2023-03-21T06:28:22.281Z,450.00
2023-03-21T06:29:22.355Z,449.00
2023-03-21T06:30:23.716Z,448.00
2023-03-21T06:31:23.418Z,448.00
2023-03-21T06:32:23.511Z,446.00
2023-03-21T06:33:22.717Z,444.00
2023-03-21T06:34:22.822Z,443.00
2023-03-21T06:35:22.955Z,443.00
2023-03-21T06:36:23.105Z,442.00
2023-03-21T06:37:23.246Z,443.00
2023-03-21T06:38:23.416Z,445.00
2023-03-21T06:39:23.516Z,447.00
2023-03-21T06:40:24.660Z,451.00
2023-03-21T06:41:23.934Z,450.00
2023-03-21T06:42:24.061Z,449.00
2023-03-21T06:43:24.031Z,449.00
2023-03-21T06:44:24.100Z,447.00
2023-03-21T06:45:24.266Z,446.00
2023-03-21T06:46:24.406Z,446.00
2023-03-21T06:47:24.534Z,446.00
2023-03-21T06:48:24.820Z,448.00
2023-03-21T06:49:24.753Z,449.00
2023-03-21T06:50:24.979Z,447.00
2023-03-21T06:51:25.052Z,450.00
2023-03-21T06:52:25.199Z,451.00
2023-03-21T06:53:25.470Z,448.00
2023-03-21T06:54:25.387Z,448.00
2023-03-21T06:55:25.532Z,448.00
2023-03-21T06:56:25.639Z,448.00
2023-03-21T06:57:25.885Z,447.00
2023-03-21T06:58:25.890Z,446.00
2023-03-21T06:59:26.029Z,447.00
2023-03-21T07:00:26.204Z,446.00
2023-03-21T07:01:26.555Z,447.00
2023-03-21T07:02:26.455Z,449.00
2023-03-21T07:03:27.852Z,450.00
2023-03-21T07:04:26.710Z,452.00
2023-03-21T07:05:27.008Z,454.00
2023-03-21T07:06:26.987Z,455.00
2023-03-21T07:07:27.406Z,456.00
2023-03-21T07:08:27.289Z,455.00
2023-03-21T07:09:27.420Z,458.00
2023-03-21T07:10:27.613Z,460.00
2023-03-21T07:11:28.669Z,459.00
2023-03-21T07:12:27.826Z,458.00
2023-03-21T07:13:27.979Z,458.00
2023-03-21T07:14:28.081Z,461.00
2023-03-21T07:15:28.232Z,463.00
2023-03-21T07:16:28.611Z,464.00
2023-03-21T07:17:28.525Z,462.00
2023-03-21T07:18:29.022Z,461.00
2023-03-21T07:19:28.841Z,460.00
2023-03-21T07:20:28.998Z,458.00
2023-03-21T07:21:30.227Z,459.00
2023-03-21T07:22:30.170Z,459.00
2023-03-21T07:23:29.464Z,457.00
2023-03-21T07:24:29.567Z,457.00
2023-03-21T07:25:29.731Z,458.00
2023-03-21T07:26:29.915Z,459.00
2023-03-21T07:27:30.020Z,459.00
2023-03-21T07:28:30.229Z,460.00
2023-03-21T07:29:30.192Z,459.00
2023-03-21T07:30:30.403Z,460.00
2023-03-21T07:31:30.712Z,463.00
2023-03-21T07:32:30.538Z,461.00
2023-03-21T07:33:31.554Z,461.00
2023-03-21T07:34:30.798Z,462.00
2023-03-21T07:35:30.976Z,462.00
2023-03-21T07:36:31.143Z,462.00
2023-03-21T07:39:48.638Z,493.00
2023-03-21T07:40:48.671Z,471.00
2023-03-21T07:41:49.674Z,469.00
2023-03-21T07:42:49.838Z,468.00
2023-03-21T07:43:48.995Z,466.00
2023-03-21T07:44:49.205Z,466.00
2023-03-21T07:45:49.347Z,464.00
2023-03-21T07:47:10.668Z,465.00
2023-03-21T07:47:49.664Z,464.00
2023-03-21T07:48:50.008Z,463.00
2023-03-21T07:49:49.775Z,461.00
2023-03-21T07:50:49.986Z,463.00
2023-03-21T07:51:49.998Z,464.00
2023-03-21T07:52:50.138Z,464.00
2023-03-21T07:53:50.330Z,464.00
2023-03-21T07:54:50.360Z,464.00
2023-03-21T07:55:50.501Z,463.00
2023-03-21T07:56:50.586Z,463.00
2023-03-21T07:57:50.708Z,462.00
2023-03-21T07:58:50.880Z,462.00
2023-03-21T07:59:50.971Z,461.00
2023-03-21T08:00:51.112Z,458.00
2023-03-21T08:01:51.275Z,457.00
2023-03-21T08:02:51.847Z,460.00
2023-03-21T08:03:51.604Z,460.00
2023-03-21T08:04:51.723Z,462.00
2023-03-21T08:05:51.857Z,464.00
2023-03-21T08:06:52.069Z,461.00
2023-03-21T08:07:52.145Z,461.00
2023-03-21T08:08:53.216Z,460.00
2023-03-21T08:09:52.407Z,460.00
2023-03-21T08:10:52.598Z,461.00
2023-03-21T08:11:53.713Z,462.00
2023-03-21T08:12:52.908Z,462.00
2023-03-21T08:13:53.053Z,464.00
2023-03-21T08:14:53.222Z,464.00
2023-03-21T08:15:53.550Z,464.00
2023-03-21T08:16:53.787Z,464.00
2023-03-21T08:17:53.600Z,465.00
2023-03-21T08:18:54.621Z,465.00
2023-03-21T08:19:53.885Z,465.00
2023-03-21T08:20:53.998Z,464.00
2023-03-21T08:21:55.454Z,465.00
2023-03-21T08:22:54.191Z,463.00
2023-03-21T08:23:54.266Z,465.00
2023-03-21T08:24:56.384Z,463.00
2023-03-21T08:25:54.544Z,462.00
2023-03-21T08:26:54.753Z,462.00
2023-03-21T08:27:55.791Z,461.00
2023-03-21T08:28:55.941Z,460.00
2023-03-21T08:29:56.047Z,460.00
2023-03-21T08:30:55.238Z,460.00
2023-03-21T08:31:55.389Z,460.00
2023-03-21T08:32:55.545Z,462.00
2023-03-21T08:33:55.737Z,460.00
2023-03-21T08:34:55.745Z,459.00
2023-03-21T08:35:56.035Z,458.00
2023-03-21T08:36:56.048Z,457.00
2023-03-21T08:37:56.184Z,456.00
2023-03-21T08:38:57.346Z,456.00
2023-03-21T08:39:56.504Z,454.00
2023-03-21T08:40:58.560Z,454.00
2023-03-21T08:41:58.189Z,454.00
2023-03-21T08:42:56.812Z,453.00
2023-03-21T08:43:56.955Z,451.00
2023-03-21T08:44:57.206Z,451.00
2023-03-21T08:45:57.467Z,453.00
2023-03-21T08:46:57.469Z,454.00
2023-03-21T08:47:57.670Z,454.00
2023-03-21T08:48:57.738Z,452.00
2023-03-21T08:49:59.167Z,451.00
2023-03-21T08:50:58.813Z,450.00
2023-03-21T08:51:58.111Z,447.00
2023-03-21T08:52:58.242Z,449.00
2023-03-21T08:53:58.426Z,450.00
2023-03-21T08:54:58.555Z,450.00
2023-03-21T08:55:58.888Z,451.00
2023-03-21T08:56:58.867Z,452.00
2023-03-21T08:57:59.039Z,453.00
2023-03-21T08:58:59.176Z,452.00
2023-03-21T08:59:59.433Z,456.00
2023-03-21T09:00:59.402Z,457.00
2023-03-21T09:01:59.647Z,456.00
2023-03-21T09:02:59.803Z,456.00
2023-03-21T09:04:01.816Z,457.00
2023-03-21T09:05:00.078Z,459.00
2023-03-21T09:06:00.129Z,458.00
2023-03-21T09:07:00.263Z,461.00
2023-03-21T09:08:00.392Z,461.00
2023-03-21T09:09:00.667Z,460.00
2023-03-21T09:10:19.791Z,462.00
2023-03-21T09:11:02.814Z,462.00
2023-03-21T09:12:01.012Z,461.00
2023-03-21T09:13:01.211Z,456.00
2023-03-21T09:14:01.327Z,454.00
2023-03-21T09:15:01.478Z,453.00
2023-03-21T09:16:01.679Z,456.00
2023-03-21T09:17:01.746Z,457.00
2023-03-21T09:18:01.861Z,460.00
2023-03-21T09:19:02.033Z,459.00
2023-03-21T09:20:02.203Z,459.00
2023-03-21T09:21:02.288Z,461.00
2023-03-21T09:22:02.390Z,461.00
2023-03-21T09:23:02.569Z,460.00
2023-03-21T09:24:02.720Z,461.00
2023-03-21T09:25:02.943Z,461.00
2023-03-21T09:26:03.031Z,462.00
2023-03-21T09:27:03.106Z,461.00
2023-03-21T09:28:05.285Z,461.00
2023-03-21T09:29:04.484Z,461.00
2023-03-21T09:30:05.486Z,460.00
2023-03-21T09:32:19.804Z,495.00
2023-03-21T09:33:20.180Z,480.00
2023-03-21T09:34:20.904Z,477.00
2023-03-21T09:35:20.479Z,476.00
2023-03-21T09:36:20.216Z,476.00
2023-03-21T09:37:20.503Z,474.00
2023-03-21T09:38:20.401Z,473.00
2023-03-21T09:39:20.533Z,474.00
2023-03-21T09:40:20.837Z,472.00
2023-03-21T09:41:20.870Z,470.00
2023-03-21T09:42:21.197Z,468.00
2023-03-21T09:43:21.378Z,471.00
2023-03-21T09:44:21.499Z,471.00
2023-03-21T09:45:21.418Z,468.00
2023-03-21T09:46:21.871Z,468.00
2023-03-21T09:47:22.414Z,467.00
2023-03-21T09:48:21.876Z,468.00
2023-03-21T09:49:21.939Z,469.00
2023-03-21T09:50:22.074Z,465.00
2023-03-21T09:51:22.187Z,463.00
2023-03-21T09:52:22.355Z,464.00
2023-03-21T09:53:22.594Z,464.00
2023-03-21T09:54:22.760Z,464.00
2023-03-21T09:55:23.028Z,463.00
2023-03-21T09:56:22.908Z,465.00
2023-03-21T09:57:23.406Z,464.00
2023-03-21T09:58:23.325Z,461.00
2023-03-21T09:59:23.218Z,459.00
2023-03-21T10:00:23.471Z,459.00
2023-03-21T10:01:23.576Z,461.00
2023-03-21T10:02:23.772Z,462.00
2023-03-21T10:13:08.968Z,485.00
2023-03-21T10:14:09.187Z,478.00
2023-03-21T10:15:09.132Z,476.00
2023-03-21T10:16:09.258Z,473.00
2023-03-21T10:17:09.378Z,474.00
2023-03-21T10:18:09.488Z,473.00
2023-03-21T10:19:09.654Z,471.00
2023-03-21T10:20:11.578Z,471.00
2023-03-21T10:21:09.853Z,473.00
2023-03-21T10:22:10.070Z,470.00
2023-03-21T10:23:11.084Z,471.00
2023-03-21T10:24:10.264Z,470.00
2023-03-21T10:25:10.379Z,470.00
2023-03-21T10:26:14.716Z,471.00
2023-03-21T10:27:13.820Z,471.00
2023-03-21T10:28:10.827Z,474.00
2023-03-21T10:29:11.976Z,474.00
2023-03-21T10:30:11.134Z,476.00
2023-03-21T10:31:11.364Z,473.00
2023-03-21T10:32:11.872Z,468.00
2023-03-21T10:33:11.604Z,467.00
2023-03-21T10:34:11.706Z,466.00
2023-03-21T10:35:11.902Z,466.00
2023-03-21T10:36:12.080Z,468.00
2023-03-21T10:37:13.100Z,469.00
2023-03-21T10:38:12.331Z,471.00
2023-03-21T10:39:12.403Z,470.00
2023-03-21T10:40:12.454Z,470.00
2023-03-21T10:41:13.599Z,469.00
2023-03-21T10:42:13.739Z,470.00
2023-03-21T10:43:12.952Z,466.00
2023-03-21T10:44:13.040Z,464.00
2023-03-21T10:45:13.200Z,466.00
2023-03-21T10:46:14.442Z,467.00
2023-03-21T10:47:13.833Z,466.00
2023-03-21T10:48:13.776Z,463.00
2023-03-21T10:49:14.360Z,464.00
2023-03-21T10:50:15.372Z,465.00
2023-03-21T10:51:14.112Z,467.00
2023-03-21T10:52:14.337Z,467.00
2023-03-21T10:53:14.844Z,467.00
2023-03-21T10:54:15.986Z,464.00
2023-03-21T10:55:15.593Z,463.00
2023-03-21T10:56:16.210Z,462.00
2023-03-21T10:57:16.421Z,461.00
2023-03-21T10:58:15.038Z,461.00
2023-03-21T10:59:15.138Z,463.00
2023-03-21T11:00:15.205Z,464.00
2023-03-21T11:01:15.673Z,463.00
2023-03-21T11:02:15.769Z,466.00
2023-03-21T11:03:15.650Z,467.00
2023-03-21T11:04:15.926Z,467.00
2023-03-21T11:05:15.906Z,466.00
2023-03-21T11:06:16.009Z,462.00
2023-03-21T11:07:17.637Z,462.00
2023-03-21T11:08:16.415Z,459.00
2023-03-21T11:09:16.905Z,458.00
2023-03-21T11:10:20.006Z,459.00
2023-03-21T11:11:18.295Z,462.00
2023-03-21T11:12:18.287Z,461.00
2023-03-21T11:13:17.052Z,459.00
2023-03-21T11:14:18.193Z,462.00
2023-03-21T11:15:17.371Z,464.00
2023-03-21T11:16:21.626Z,464.00
2023-03-21T11:17:21.367Z,465.00
2023-03-21T11:18:18.129Z,469.00
2023-03-21T11:19:17.897Z,468.00
2023-03-21T11:20:20.709Z,468.00
2023-03-21T11:21:18.166Z,467.00
2023-03-21T11:22:18.385Z,466.00
2023-03-21T11:23:20.715Z,466.00
2023-03-21T11:24:18.997Z,469.00
2023-03-21T11:25:18.903Z,470.00
2023-03-21T11:26:18.970Z,469.00
2023-03-21T11:27:19.331Z,472.00
2023-03-21T11:28:20.033Z,471.00
2023-03-21T11:29:19.500Z,474.00
2023-03-21T11:30:20.481Z,474.00
2023-03-21T11:31:21.638Z,475.00
2023-03-21T11:32:21.162Z,476.00
2023-03-21T11:33:19.788Z,473.00
2023-03-21T11:34:20.055Z,473.00
2023-03-21T11:35:20.051Z,472.00
2023-03-21T11:36:20.202Z,471.00
2023-03-21T11:37:20.352Z,473.00
2023-03-21T11:38:20.491Z,472.00
2023-03-21T11:39:20.546Z,471.00
2023-03-21T11:40:20.698Z,472.00
2023-03-21T11:41:20.844Z,471.00
2023-03-21T11:42:21.949Z,472.00
2023-03-21T11:43:21.100Z,471.00
2023-03-21T11:44:21.376Z,472.00
2023-03-21T11:45:21.504Z,469.00
2023-03-21T11:46:22.511Z,469.00
2023-03-21T11:47:21.680Z,471.00
2023-03-21T11:48:21.804Z,471.00
2023-03-21T11:49:21.994Z,472.00
2023-03-21T11:52:39.361Z,506.00
2023-03-21T11:54:55.597Z,495.00
2023-03-21T11:55:55.606Z,498.00
2023-03-21T11:56:56.020Z,493.00
2023-03-21T11:57:57.946Z,496.00
2023-03-21T11:58:56.495Z,496.00
2023-03-21T11:59:56.518Z,492.00
2023-03-21T12:00:56.393Z,494.00
2023-03-21T12:01:56.530Z,494.00
2023-03-21T12:02:56.975Z,516.00
2023-03-21T12:03:57.175Z,564.00
2023-03-21T12:04:56.986Z,565.00
2023-03-21T12:05:57.919Z,562.00
2023-03-21T12:06:57.193Z,558.00
2023-03-21T12:07:57.422Z,552.00
2023-03-21T12:08:57.597Z,549.00
2023-03-21T12:09:57.855Z,548.00
2023-03-21T12:10:57.810Z,545.00
2023-03-21T12:11:58.570Z,541.00
2023-03-21T12:12:58.137Z,541.00
2023-03-21T12:13:58.649Z,539.00
2023-03-21T12:14:59.106Z,536.00
2023-03-21T12:15:59.106Z,534.00
2023-03-21T12:17:00.863Z,531.00
2023-03-21T12:17:59.077Z,530.00
2023-03-21T12:18:58.965Z,527.00
2023-03-21T12:19:59.184Z,526.00
2023-03-21T12:21:00.606Z,526.00
2023-03-21T12:21:59.628Z,524.00
2023-03-21T12:22:59.491Z,523.00
2023-03-21T12:23:59.820Z,519.00
2023-03-21T12:24:59.792Z,516.00
2023-03-21T12:26:00.012Z,513.00
2023-03-21T12:27:00.410Z,511.00
2023-03-21T12:28:02.845Z,509.00
2023-03-21T12:29:00.325Z,508.00
2023-03-21T12:30:00.629Z,510.00
2023-03-21T12:31:01.525Z,511.00
2023-03-21T12:32:00.662Z,508.00
2023-03-21T12:33:00.793Z,507.00
2023-03-21T12:34:01.879Z,506.00
2023-03-21T12:35:01.027Z,507.00
2023-03-21T12:36:01.257Z,510.00
2023-03-21T12:37:01.316Z,508.00
2023-03-21T12:38:01.545Z,507.00
2023-03-21T12:39:01.649Z,504.00
2023-03-21T12:40:02.045Z,505.00
2023-03-21T12:41:01.868Z,502.00
2023-03-21T12:42:02.042Z,502.00
2023-03-21T12:43:02.154Z,499.00
2023-03-21T12:44:02.313Z,499.00
2023-03-21T12:45:06.247Z,500.00
2023-03-21T12:46:04.056Z,499.00
2023-03-21T12:47:02.693Z,498.00
2023-03-21T12:48:03.868Z,501.00
2023-03-21T12:49:03.008Z,504.00
2023-03-21T12:50:03.114Z,504.00
2023-03-21T12:51:03.328Z,504.00
2023-03-21T12:52:03.432Z,503.00
2023-03-21T12:53:03.584Z,502.00
2023-03-21T12:54:04.601Z,501.00
2023-03-21T12:55:03.868Z,498.00
2023-03-21T12:56:04.004Z,496.00
2023-03-21T12:57:04.303Z,494.00
2023-03-21T12:58:04.389Z,496.00
2023-03-21T12:59:04.433Z,495.00
2023-03-21T13:00:04.535Z,496.00
2023-03-21T13:01:05.699Z,497.00
2023-03-21T13:02:05.807Z,496.00
2023-03-21T13:03:05.964Z,494.00
2023-03-21T13:04:05.370Z,493.00
2023-03-21T13:05:05.487Z,495.00
2023-03-21T13:06:05.503Z,495.00
2023-03-21T13:07:05.981Z,496.00
2023-03-21T13:08:06.715Z,496.00
2023-03-21T13:09:05.853Z,493.00
2023-03-21T13:10:06.216Z,492.00
2023-03-21T13:11:06.021Z,493.00
2023-03-21T13:12:06.181Z,495.00
2023-03-21T13:13:06.575Z,492.00
2023-03-21T13:14:06.681Z,492.00
2023-03-21T13:15:12.491Z,490.00
2023-03-21T13:16:07.836Z,490.00
2023-03-21T13:17:07.010Z,489.00
2023-03-21T13:18:08.078Z,488.00
2023-03-21T13:19:07.253Z,488.00
2023-03-21T13:20:07.394Z,486.00
2023-03-21T13:21:07.540Z,486.00
2023-03-21T13:22:07.689Z,485.00
2023-03-21T13:23:07.768Z,483.00
2023-03-21T13:24:08.290Z,484.00
2023-03-21T13:25:08.031Z,487.00
2023-03-21T13:26:08.217Z,486.00
2023-03-21T13:27:08.331Z,486.00
2023-03-21T13:28:08.602Z,485.00
2023-03-21T13:29:08.606Z,487.00
2023-03-21T13:30:08.904Z,482.00
2023-03-21T13:31:08.846Z,479.00
2023-03-21T13:32:09.003Z,477.00
2023-03-21T13:35:26.683Z,517.00
2023-03-21T13:36:26.636Z,498.00
2023-03-21T13:37:26.981Z,494.00
2023-03-21T13:38:26.891Z,497.00
2023-03-21T13:39:27.064Z,498.00
2023-03-21T13:40:28.125Z,500.00
2023-03-21T13:41:27.585Z,500.00
2023-03-21T13:42:31.352Z,496.00
2023-03-21T13:43:29.009Z,498.00
2023-03-21T13:45:43.237Z,496.00
2023-03-21T13:46:52.890Z,495.00
2023-03-21T13:47:44.300Z,491.00
2023-03-21T13:48:49.390Z,494.00
2023-03-21T13:49:44.499Z,494.00
2023-03-21T13:50:43.686Z,494.00
2023-03-21T13:51:43.749Z,493.00
2023-03-21T13:52:44.354Z,492.00
2023-03-21T13:53:44.542Z,490.00
2023-03-21T13:54:44.518Z,490.00
2023-03-21T13:55:44.540Z,490.00
2023-03-21T13:56:44.519Z,489.00
2023-03-21T13:57:44.638Z,488.00
2023-03-21T13:58:44.733Z,487.00
2023-03-21T13:59:45.398Z,485.00
2023-03-21T14:00:45.142Z,483.00
2023-03-21T14:01:45.220Z,482.00
2023-03-21T14:02:45.230Z,482.00
2023-03-21T14:03:45.553Z,481.00
2023-03-21T14:05:03.737Z,481.00
2023-03-21T14:05:46.680Z,479.00
2023-03-21T14:06:45.894Z,478.00
2023-03-21T14:07:46.873Z,478.00
2023-03-21T14:08:46.348Z,477.00
2023-03-21T14:09:46.282Z,478.00
2023-03-21T14:10:46.608Z,477.00
2023-03-21T14:11:47.152Z,473.00
2023-03-21T14:12:46.876Z,473.00
2023-03-21T14:13:51.331Z,475.00
2023-03-21T14:14:48.026Z,474.00
2023-03-21T14:15:55.279Z,475.00
2023-03-21T14:17:47.424Z,477.00
2023-03-21T14:18:54.123Z,476.00
2023-03-21T14:19:48.507Z,474.00
2023-03-21T14:20:47.593Z,472.00
2023-03-21T14:21:47.895Z,473.00
2023-03-21T14:22:49.304Z,473.00
2023-03-21T14:23:47.975Z,474.00
2023-03-21T14:24:48.493Z,472.00
2023-03-21T14:25:48.380Z,473.00
2023-03-21T14:26:48.404Z,472.00
2023-03-21T14:27:48.504Z,471.00
2023-03-21T14:28:48.585Z,473.00
2023-03-21T14:29:48.856Z,472.00
2023-03-21T14:30:49.085Z,468.00
2023-03-21T14:31:49.953Z,466.00
2023-03-21T14:32:49.260Z,465.00
2023-03-21T14:33:49.694Z,464.00
2023-03-21T14:34:49.472Z,465.00
2023-03-21T14:35:50.183Z,466.00
2023-03-21T14:36:57.536Z,465.00
2023-03-21T14:37:51.243Z,463.00
2023-03-21T14:38:50.082Z,464.00
2023-03-21T14:39:50.152Z,463.00
2023-03-21T14:40:50.331Z,462.00
2023-03-21T14:41:50.454Z,463.00
2023-03-21T14:42:50.649Z,464.00
2023-03-21T14:43:50.920Z,462.00
2023-03-21T14:44:55.171Z,459.00
2023-03-21T14:45:52.109Z,456.00
2023-03-21T14:46:51.668Z,456.00
2023-03-21T14:47:52.279Z,454.00
2023-03-21T14:48:51.400Z,453.00
2023-03-21T14:49:51.572Z,456.00
2023-03-21T14:50:51.595Z,459.00
2023-03-21T14:51:51.768Z,459.00
2023-03-21T14:52:51.857Z,459.00
2023-03-21T14:53:52.011Z,459.00
2023-03-21T14:54:52.137Z,460.00
2023-03-21T14:55:52.345Z,462.00
2023-03-21T14:56:52.431Z,464.00
2023-03-21T14:57:54.018Z,466.00
2023-03-21T14:58:52.762Z,465.00
2023-03-21T14:59:53.323Z,464.00
2023-03-21T15:00:52.983Z,463.00
2023-03-21T15:01:53.238Z,462.00
2023-03-21T15:02:53.334Z,460.00
2023-03-21T15:03:53.390Z,461.00
2023-03-21T15:04:53.631Z,461.00
2023-03-21T15:05:53.807Z,460.00
2023-03-21T15:06:54.862Z,458.00
2023-03-21T15:10:13.139Z,480.00
2023-03-21T15:11:11.349Z,472.00
2023-03-21T15:12:10.719Z,477.00
2023-03-21T15:13:11.720Z,474.00
2023-03-21T15:14:10.746Z,471.00
2023-03-21T15:15:10.884Z,470.00
2023-03-21T15:16:11.067Z,471.00
2023-03-21T15:17:12.251Z,471.00
2023-03-21T15:18:11.370Z,472.00
2023-03-21T15:19:11.518Z,471.00
2023-03-21T15:20:12.706Z,468.00
2023-03-21T15:21:12.742Z,468.00
2023-03-21T15:22:11.900Z,469.00
2023-03-21T15:23:12.934Z,468.00
2023-03-21T15:24:13.084Z,466.00
2023-03-21T15:25:12.314Z,464.00
2023-03-21T15:26:12.796Z,464.00
2023-03-21T15:27:12.845Z,460.00
2023-03-21T15:28:12.816Z,458.00
2023-03-21T15:29:12.862Z,458.00
2023-03-21T15:30:14.392Z,458.00
2023-03-21T15:31:13.567Z,458.00
2023-03-21T15:32:14.130Z,457.00
2023-03-21T15:33:14.309Z,454.00
2023-03-21T15:34:13.718Z,454.00
2023-03-21T15:35:13.655Z,455.00
2023-03-21T15:36:14.033Z,455.00
2023-03-21T15:37:14.158Z,455.00
2023-03-21T15:38:14.253Z,453.00
2023-03-21T15:39:14.202Z,451.00
2023-03-21T15:40:15.230Z,449.00
2023-03-21T15:41:14.507Z,450.00
2023-03-21T15:42:15.519Z,451.00
2023-03-21T15:43:16.349Z,452.00
2023-03-21T15:44:15.734Z,452.00
2023-03-21T15:45:15.368Z,454.00
2023-03-21T15:46:15.570Z,452.00
2023-03-21T15:47:15.563Z,452.00
2023-03-21T15:48:15.544Z,449.00
2023-03-21T15:49:15.469Z,448.00
2023-03-21T15:50:15.558Z,446.00
2023-03-21T15:51:15.783Z,447.00
2023-03-21T15:52:16.718Z,449.00
2023-03-21T15:53:16.895Z,449.00
2023-03-21T15:54:16.423Z,448.00
2023-03-21T15:55:16.567Z,446.00
2023-03-21T15:56:16.731Z,446.00
2023-03-21T15:57:17.345Z,446.00
2023-03-21T15:58:16.899Z,448.00
2023-03-21T15:59:16.803Z,447.00
2023-03-21T16:00:17.229Z,448.00
2023-03-21T16:01:17.962Z,451.00
2023-03-21T16:12:27.978Z,473.00
2023-03-21T16:13:25.218Z,455.00
2023-03-21T16:14:25.859Z,455.00
2023-03-21T16:15:25.111Z,455.00
2023-03-21T16:16:25.362Z,455.00
2023-03-21T16:17:25.362Z,455.00
2023-03-21T16:18:26.349Z,452.00
2023-03-21T16:19:25.954Z,453.00
2023-03-21T16:20:26.596Z,451.00
2023-03-21T16:21:26.719Z,449.00
2023-03-21T16:22:26.114Z,448.00
2023-03-21T16:23:47.941Z,452.00
2023-03-21T16:24:26.634Z,452.00
2023-03-21T16:25:27.278Z,451.00
2023-03-21T16:26:27.674Z,450.00
2023-03-21T16:27:27.674Z,449.00
2023-03-21T16:28:27.720Z,445.00
2023-03-21T16:29:27.140Z,443.00
2023-03-21T16:30:28.417Z,443.00
2023-03-21T16:31:28.016Z,445.00
2023-03-21T16:32:27.259Z,446.00
2023-03-21T16:33:28.584Z,447.00
2023-03-21T16:34:28.094Z,448.00
2023-03-21T16:35:28.012Z,445.00
2023-03-21T16:36:28.034Z,443.00
2023-03-21T16:37:28.071Z,442.00
2023-03-21T16:38:28.498Z,440.00
2023-03-21T16:39:28.185Z,440.00
2023-03-21T16:40:28.320Z,440.00
2023-03-21T16:41:29.445Z,444.00
2023-03-21T16:42:29.507Z,444.00
2023-03-21T16:43:29.184Z,445.00
2023-03-21T16:44:29.295Z,446.00
2023-03-21T16:45:29.265Z,445.00
2023-03-21T16:46:29.405Z,445.00
2023-03-21T16:47:29.454Z,445.00
2023-03-21T16:48:29.627Z,445.00
2023-03-21T16:49:29.494Z,443.00
2023-03-21T16:50:29.618Z,445.00
2023-03-21T16:51:31.152Z,444.00
2023-03-21T16:52:30.089Z,446.00
2023-03-21T16:53:30.931Z,446.00
2023-03-21T16:54:30.614Z,445.00
2023-03-21T16:55:31.264Z,449.00
2023-03-21T16:56:31.368Z,451.00
2023-03-21T16:57:31.736Z,451.00
2023-03-21T16:58:31.710Z,451.00
2023-03-21T16:59:30.811Z,452.00
2023-03-21T17:00:30.897Z,451.00
2023-03-21T17:01:32.517Z,448.00
2023-03-21T17:02:31.122Z,448.00
2023-03-21T17:03:32.272Z,448.00
2023-03-21T17:04:52.507Z,447.00